sensor_id;sensor_type;location;lat;lon;timestamp;pressure;altitude;pressure_sealevel;temperature;humidity
72465;BME280;60471;52.150;4.508;2023-08-06T00:01:27;100169.56;;;17.27;83.38
72465;BME280;60471;52.150;4.508;2023-08-06T00:03:53;100161.31;;;17.30;83.24
72465;BME280;60471;52.150;4.508;2023-08-06T00:06:19;100158.06;;;17.27;83.40
72465;BME280;60471;52.150;4.508;2023-08-06T00:08:46;100159.19;;;17.34;83.37
72465;BME280;60471;52.150;4.508;2023-08-06T00:11:12;100155.13;;;17.30;83.34
72465;BME280;60471;52.150;4.508;2023-08-06T00:13:39;100161.91;;;17.44;83.12
72465;BME280;60471;52.150;4.508;2023-08-06T00:16:12;100160.97;;;17.24;83.58
72465;BME280;60471;52.150;4.508;2023-08-06T00:18:39;100158.50;;;17.32;83.36
72465;BME280;60471;52.150;4.508;2023-08-06T00:21:06;100160.47;;;17.30;83.22
72465;BME280;60471;52.150;4.508;2023-08-06T00:23:32;100155.97;;;17.30;83.67
72465;BME280;60471;52.150;4.508;2023-08-06T00:25:59;100152.47;;;17.30;84.03
72465;BME280;60471;52.150;4.508;2023-08-06T00:28:25;100162.47;;;17.37;84.18
72465;BME280;60471;52.150;4.508;2023-08-06T00:30:55;100153.22;;;17.42;83.83
72465;BME280;60471;52.150;4.508;2023-08-06T00:33:22;100156.00;;;17.40;83.74
72465;BME280;60471;52.150;4.508;2023-08-06T00:35:48;100159.38;;;17.42;83.50
72465;BME280;60471;52.150;4.508;2023-08-06T00:38:15;100157.88;;;17.49;83.42
72465;BME280;60471;52.150;4.508;2023-08-06T00:40:41;100160.78;;;17.46;83.50
72465;BME280;60471;52.150;4.508;2023-08-06T00:43:07;100157.31;;;17.55;83.32
72465;BME280;60471;52.150;4.508;2023-08-06T00:45:35;100162.09;;;17.52;82.99
72465;BME280;60471;52.150;4.508;2023-08-06T00:48:05;100153.06;;;17.43;83.64
72465;BME280;60471;52.150;4.508;2023-08-06T00:50:33;100158.31;;;17.54;83.57
72465;BME280;60471;52.150;4.508;2023-08-06T00:52:59;100158.72;;;17.50;83.09
72465;BME280;60471;52.150;4.508;2023-08-06T00:55:26;100159.44;;;17.52;83.34
72465;BME280;60471;52.150;4.508;2023-08-06T00:57:53;100162.41;;;17.58;82.74
72465;BME280;60471;52.150;4.508;2023-08-06T01:00:22;100157.88;;;17.49;82.77
72465;BME280;60471;52.150;4.508;2023-08-06T01:02:50;100160.09;;;17.44;83.07
72465;BME280;60471;52.150;4.508;2023-08-06T01:05:16;100158.97;;;17.47;83.36
72465;BME280;60471;52.150;4.508;2023-08-06T01:11:07;100159.72;;;17.49;82.60
72465;BME280;60471;52.150;4.508;2023-08-06T01:13:46;100148.47;;;17.55;82.90
72465;BME280;60471;52.150;4.508;2023-08-06T01:16:20;100155.91;;;17.51;82.79
72465;BME280;60471;52.150;4.508;2023-08-06T01:18:48;100158.25;;;17.45;83.30
72465;BME280;60471;52.150;4.508;2023-08-06T01:21:17;100157.59;;;17.52;83.02
72465;BME280;60471;52.150;4.508;2023-08-06T01:23:45;100158.88;;;17.48;82.96
72465;BME280;60471;52.150;4.508;2023-08-06T01:29:25;100161.63;;;17.37;83.96
72465;BME280;60471;52.150;4.508;2023-08-06T01:31:57;100166.97;;;17.37;83.77
72465;BME280;60471;52.150;4.508;2023-08-06T01:34:28;100161.72;;;17.35;83.93
72465;BME280;60471;52.150;4.508;2023-08-06T01:36:56;100160.72;;;17.27;84.51
72465;BME280;60471;52.150;4.508;2023-08-06T01:39:26;100168.19;;;17.33;84.46
72465;BME280;60471;52.150;4.508;2023-08-06T01:41:53;100172.03;;;17.40;84.44
72465;BME280;60471;52.150;4.508;2023-08-06T01:44:19;100176.09;;;17.44;84.16
72465;BME280;60471;52.150;4.508;2023-08-06T01:46:45;100155.88;;;17.42;83.93
72465;BME280;60471;52.150;4.508;2023-08-06T01:49:11;100170.19;;;17.41;84.32
72465;BME280;60471;52.150;4.508;2023-08-06T01:51:38;100169.06;;;17.43;84.03
72465;BME280;60471;52.150;4.508;2023-08-06T01:54:04;100173.28;;;17.46;84.18
72465;BME280;60471;52.150;4.508;2023-08-06T01:56:30;100182.28;;;17.45;83.62
72465;BME280;60471;52.150;4.508;2023-08-06T01:58:57;100177.03;;;17.33;83.88
72465;BME280;60471;52.150;4.508;2023-08-06T02:01:23;100182.16;;;17.25;84.28
72465;BME280;60471;52.150;4.508;2023-08-06T02:03:49;100177.44;;;17.29;84.73
72465;BME280;60471;52.150;4.508;2023-08-06T02:06:15;100181.25;;;17.36;84.83
72465;BME280;60471;52.150;4.508;2023-08-06T02:08:42;100185.56;;;17.27;84.54
72465;BME280;60471;52.150;4.508;2023-08-06T02:11:08;100190.06;;;17.27;84.64
72465;BME280;60471;52.150;4.508;2023-08-06T02:13:34;100186.72;;;17.34;84.65
72465;BME280;60471;52.150;4.508;2023-08-06T02:16:00;100187.41;;;17.36;84.67
72465;BME280;60471;52.150;4.508;2023-08-06T02:18:27;100191.06;;;17.35;84.68
72465;BME280;60471;52.150;4.508;2023-08-06T02:20:57;100195.34;;;17.17;85.09
72465;BME280;60471;52.150;4.508;2023-08-06T02:23:26;100197.28;;;17.15;85.07
72465;BME280;60471;52.150;4.508;2023-08-06T02:26:04;100194.44;;;17.07;85.74
72465;BME280;60471;52.150;4.508;2023-08-06T02:28:31;100198.00;;;16.96;86.49
72465;BME280;60471;52.150;4.508;2023-08-06T02:30:58;100204.88;;;16.99;86.91
72465;BME280;60471;52.150;4.508;2023-08-06T02:33:24;100202.44;;;17.07;86.42
72465;BME280;60471;52.150;4.508;2023-08-06T02:35:50;100195.13;;;17.09;86.13
72465;BME280;60471;52.150;4.508;2023-08-06T02:38:17;100197.28;;;17.15;86.38
72465;BME280;60471;52.150;4.508;2023-08-06T02:40:44;100209.25;;;17.21;85.93
72465;BME280;60471;52.150;4.508;2023-08-06T02:43:11;100199.34;;;17.32;85.60
72465;BME280;60471;52.150;4.508;2023-08-06T02:45:38;100207.41;;;17.21;85.21
72465;BME280;60471;52.150;4.508;2023-08-06T02:48:05;100209.75;;;17.15;85.45
72465;BME280;60471;52.150;4.508;2023-08-06T02:50:38;100210.03;;;17.12;85.90
72465;BME280;60471;52.150;4.508;2023-08-06T02:53:06;100199.63;;;17.08;86.11
72465;BME280;60471;52.150;4.508;2023-08-06T02:55:34;100203.56;;;17.14;85.70
72465;BME280;60471;52.150;4.508;2023-08-06T02:58:01;100192.84;;;17.25;85.40
72465;BME280;60471;52.150;4.508;2023-08-06T03:00:28;100191.91;;;17.36;85.16
72465;BME280;60471;52.150;4.508;2023-08-06T03:02:54;100193.34;;;17.40;84.51
72465;BME280;60471;52.150;4.508;2023-08-06T03:05:21;100195.41;;;17.36;84.69
72465;BME280;60471;52.150;4.508;2023-08-06T03:07:47;100198.09;;;17.36;84.31
72465;BME280;60471;52.150;4.508;2023-08-06T03:10:13;100201.50;;;17.18;84.91
72465;BME280;60471;52.150;4.508;2023-08-06T03:12:39;100207.41;;;17.21;84.79
72465;BME280;60471;52.150;4.508;2023-08-06T03:15:06;100198.25;;;17.14;84.52
72465;BME280;60471;52.150;4.508;2023-08-06T03:17:32;100196.69;;;17.12;84.55
72465;BME280;60471;52.150;4.508;2023-08-06T03:19:59;100195.41;;;17.06;84.68
72465;BME280;60471;52.150;4.508;2023-08-06T03:22:25;100205.28;;;16.94;84.86
72465;BME280;60471;52.150;4.508;2023-08-06T03:24:51;100199.44;;;17.00;85.48
72465;BME280;60471;52.150;4.508;2023-08-06T03:27:17;100202.22;;;16.99;85.41
72465;BME280;60471;52.150;4.508;2023-08-06T03:29:43;100205.34;;;17.04;85.16
72465;BME280;60471;52.150;4.508;2023-08-06T03:32:10;100199.13;;;16.94;85.36
72465;BME280;60471;52.150;4.508;2023-08-06T03:34:36;100212.09;;;16.87;85.71
72465;BME280;60471;52.150;4.508;2023-08-06T03:37:02;100205.34;;;16.83;85.46
72465;BME280;60471;52.150;4.508;2023-08-06T03:39:28;100206.34;;;16.71;83.98
72465;BME280;60471;52.150;4.508;2023-08-06T03:41:55;100218.16;;;16.46;82.76
72465;BME280;60471;52.150;4.508;2023-08-06T03:44:21;100216.94;;;16.61;81.63
72465;BME280;60471;52.150;4.508;2023-08-06T03:46:47;100218.75;;;16.61;80.89
72465;BME280;60471;52.150;4.508;2023-08-06T03:49:13;100223.69;;;16.65;80.12
72465;BME280;60471;52.150;4.508;2023-08-06T03:51:40;100224.88;;;16.40;79.29
72465;BME280;60471;52.150;4.508;2023-08-06T03:54:06;100232.00;;;16.40;79.81
72465;BME280;60471;52.150;4.508;2023-08-06T03:56:32;100231.22;;;16.49;79.13
72465;BME280;60471;52.150;4.508;2023-08-06T03:58:58;100237.16;;;16.52;78.98
72465;BME280;60471;52.150;4.508;2023-08-06T04:01:28;100242.72;;;16.49;77.91
72465;BME280;60471;52.150;4.508;2023-08-06T04:03:54;100246.38;;;16.37;78.31
72465;BME280;60471;52.150;4.508;2023-08-06T04:06:20;100243.88;;;16.24;78.69
72465;BME280;60471;52.150;4.508;2023-08-06T04:08:46;100240.59;;;16.32;79.42
72465;BME280;60471;52.150;4.508;2023-08-06T04:11:12;100243.28;;;16.32;79.27
72465;BME280;60471;52.150;4.508;2023-08-06T04:13:42;100235.16;;;16.34;78.89
72465;BME280;60471;52.150;4.508;2023-08-06T04:16:10;100243.84;;;16.36;79.31
72465;BME280;60471;52.150;4.508;2023-08-06T04:18:36;100243.50;;;16.40;79.18
72465;BME280;60471;52.150;4.508;2023-08-06T04:21:02;100253.38;;;16.61;78.46
72465;BME280;60471;52.150;4.508;2023-08-06T04:23:29;100247.78;;;16.64;77.93
72465;BME280;60471;52.150;4.508;2023-08-06T04:25:58;100244.28;;;16.63;77.53
72465;BME280;60471;52.150;4.508;2023-08-06T04:28:24;100246.56;;;16.68;77.67
72465;BME280;60471;52.150;4.508;2023-08-06T04:30:51;100247.16;;;16.60;77.87
72465;BME280;60471;52.150;4.508;2023-08-06T04:33:22;100252.13;;;16.76;77.62
72465;BME280;60471;52.150;4.508;2023-08-06T04:35:54;100255.19;;;16.92;77.39
72465;BME280;60471;52.150;4.508;2023-08-06T04:38:23;100252.16;;;16.97;77.15
72465;BME280;60471;52.150;4.508;2023-08-06T04:40:53;100260.66;;;17.12;76.58
72465;BME280;60471;52.150;4.508;2023-08-06T04:43:20;100270.22;;;17.14;76.73
72465;BME280;60471;52.150;4.508;2023-08-06T04:45:50;100267.13;;;17.09;76.67
72465;BME280;60471;52.150;4.508;2023-08-06T04:48:19;100270.97;;;17.16;76.72
72465;BME280;60471;52.150;4.508;2023-08-06T04:50:50;100265.03;;;17.33;75.82
72465;BME280;60471;52.150;4.508;2023-08-06T04:53:16;100276.03;;;17.40;75.97
72465;BME280;60471;52.150;4.508;2023-08-06T04:55:43;100274.06;;;17.42;76.15
72465;BME280;60471;52.150;4.508;2023-08-06T04:58:09;100275.91;;;17.42;75.95
72465;BME280;60471;52.150;4.508;2023-08-06T05:00:36;100275.50;;;17.46;75.36
72465;BME280;60471;52.150;4.508;2023-08-06T05:03:02;100278.22;;;17.56;75.49
72465;BME280;60471;52.150;4.508;2023-08-06T05:05:29;100288.94;;;17.65;75.55
72465;BME280;60471;52.150;4.508;2023-08-06T05:07:57;100291.03;;;17.62;75.24
72465;BME280;60471;52.150;4.508;2023-08-06T05:10:27;100292.13;;;17.71;75.02
72465;BME280;60471;52.150;4.508;2023-08-06T05:12:53;100293.94;;;17.70;74.72
72465;BME280;60471;52.150;4.508;2023-08-06T05:15:20;100302.25;;;17.77;74.39
72465;BME280;60471;52.150;4.508;2023-08-06T05:17:46;100302.38;;;17.75;74.45
72465;BME280;60471;52.150;4.508;2023-08-06T05:20:12;100302.91;;;17.69;74.80
72465;BME280;60471;52.150;4.508;2023-08-06T05:22:39;100310.38;;;17.75;74.00
72465;BME280;60471;52.150;4.508;2023-08-06T05:25:05;100309.03;;;17.81;73.60
72465;BME280;60471;52.150;4.508;2023-08-06T05:27:32;100301.41;;;17.76;73.58
72465;BME280;60471;52.150;4.508;2023-08-06T05:29:58;100305.00;;;17.96;72.94
72465;BME280;60471;52.150;4.508;2023-08-06T05:32:24;100308.47;;;17.87;72.59
72465;BME280;60471;52.150;4.508;2023-08-06T05:34:51;100319.16;;;17.87;72.99
72465;BME280;60471;52.150;4.508;2023-08-06T05:37:17;100319.72;;;17.90;73.07
72465;BME280;60471;52.150;4.508;2023-08-06T05:39:43;100324.53;;;17.96;73.37
72465;BME280;60471;52.150;4.508;2023-08-06T05:42:09;100327.41;;;18.05;72.97
72465;BME280;60471;52.150;4.508;2023-08-06T05:44:35;100336.00;;;17.87;73.57
72465;BME280;60471;52.150;4.508;2023-08-06T05:47:02;100329.13;;;17.85;73.14
72465;BME280;60471;52.150;4.508;2023-08-06T05:49:28;100336.19;;;17.95;73.53
72465;BME280;60471;52.150;4.508;2023-08-06T05:51:54;100343.88;;;17.89;73.66
72465;BME280;60471;52.150;4.508;2023-08-06T05:54:21;100333.59;;;18.05;72.18
72465;BME280;60471;52.150;4.508;2023-08-06T05:56:47;100341.44;;;18.07;73.03
72465;BME280;60471;52.150;4.508;2023-08-06T05:59:13;100347.78;;;18.06;72.03
72465;BME280;60471;52.150;4.508;2023-08-06T06:01:39;100349.09;;;17.90;72.27
72465;BME280;60471;52.150;4.508;2023-08-06T06:04:05;100351.81;;;18.00;72.65
72465;BME280;60471;52.150;4.508;2023-08-06T06:06:32;100347.41;;;17.89;72.69
72465;BME280;60471;52.150;4.508;2023-08-06T06:08:58;100357.19;;;18.10;72.25
72465;BME280;60471;52.150;4.508;2023-08-06T06:11:24;100356.69;;;18.16;71.95
72465;BME280;60471;52.150;4.508;2023-08-06T06:13:51;100362.88;;;18.16;71.77
72465;BME280;60471;52.150;4.508;2023-08-06T06:16:17;100356.16;;;18.32;71.25
72465;BME280;60471;52.150;4.508;2023-08-06T06:18:44;100366.72;;;18.33;70.94
72465;BME280;60471;52.150;4.508;2023-08-06T06:21:10;100367.13;;;18.29;71.53
72465;BME280;60471;52.150;4.508;2023-08-06T06:23:37;100373.63;;;18.36;71.67
72465;BME280;60471;52.150;4.508;2023-08-06T06:26:03;100361.47;;;18.22;71.54
72465;BME280;60471;52.150;4.508;2023-08-06T06:28:29;100377.72;;;18.40;70.76
72465;BME280;60471;52.150;4.508;2023-08-06T06:31:00;100368.91;;;18.18;71.25
72465;BME280;60471;52.150;4.508;2023-08-06T06:33:27;100371.56;;;18.18;71.94
72465;BME280;60471;52.150;4.508;2023-08-06T06:35:53;100379.72;;;18.17;72.10
72465;BME280;60471;52.150;4.508;2023-08-06T06:38:20;100378.03;;;18.16;72.17
72465;BME280;60471;52.150;4.508;2023-08-06T06:40:56;100378.69;;;18.08;71.21
72465;BME280;60471;52.150;4.508;2023-08-06T06:43:23;100383.31;;;18.06;71.96
72465;BME280;60471;52.150;4.508;2023-08-06T06:45:55;100388.16;;;18.22;71.97
72465;BME280;60471;52.150;4.508;2023-08-06T06:48:26;100394.56;;;18.10;71.19
72465;BME280;60471;52.150;4.508;2023-08-06T06:50:54;100387.50;;;18.30;71.26
72465;BME280;60471;52.150;4.508;2023-08-06T06:53:21;100396.53;;;18.08;70.66
72465;BME280;60471;52.150;4.508;2023-08-06T06:55:55;100395.84;;;18.06;71.07
72465;BME280;60471;52.150;4.508;2023-08-06T06:58:22;100388.50;;;18.29;70.13
72465;BME280;60471;52.150;4.508;2023-08-06T07:00:48;100402.25;;;18.24;69.94
72465;BME280;60471;52.150;4.508;2023-08-06T07:03:15;100401.28;;;18.25;69.82
72465;BME280;60471;52.150;4.508;2023-08-06T07:05:42;100398.66;;;18.44;69.73
72465;BME280;60471;52.150;4.508;2023-08-06T07:08:10;100398.09;;;18.41;69.85
72465;BME280;60471;52.150;4.508;2023-08-06T07:10:36;100395.59;;;18.49;69.28
72465;BME280;60471;52.150;4.508;2023-08-06T07:13:02;100407.28;;;18.48;68.17
72465;BME280;60471;52.150;4.508;2023-08-06T07:15:28;100413.47;;;18.48;67.93
72465;BME280;60471;52.150;4.508;2023-08-06T07:17:55;100403.34;;;18.52;67.97
72465;BME280;60471;52.150;4.508;2023-08-06T07:20:21;100406.41;;;18.68;67.22
72465;BME280;60471;52.150;4.508;2023-08-06T07:22:47;100407.38;;;18.67;67.25
72465;BME280;60471;52.150;4.508;2023-08-06T07:25:13;100410.75;;;18.69;66.13
72465;BME280;60471;52.150;4.508;2023-08-06T07:27:40;100413.06;;;18.53;66.22
72465;BME280;60471;52.150;4.508;2023-08-06T07:30:07;100418.50;;;18.72;66.26
72465;BME280;60471;52.150;4.508;2023-08-06T07:32:33;100420.13;;;19.04;65.04
72465;BME280;60471;52.150;4.508;2023-08-06T07:35:00;100417.63;;;19.12;65.08
72465;BME280;60471;52.150;4.508;2023-08-06T07:37:26;100420.84;;;19.16;64.86
72465;BME280;60471;52.150;4.508;2023-08-06T07:39:56;100431.56;;;19.25;65.09
72465;BME280;60471;52.150;4.508;2023-08-06T07:42:23;100419.28;;;19.03;65.08
72465;BME280;60471;52.150;4.508;2023-08-06T07:44:54;100430.53;;;18.97;64.76
72465;BME280;60471;52.150;4.508;2023-08-06T07:47:22;100427.00;;;18.97;64.84
72465;BME280;60471;52.150;4.508;2023-08-06T07:49:48;100435.84;;;18.78;65.05
72465;BME280;60471;52.150;4.508;2023-08-06T07:52:15;100432.50;;;18.95;64.47
72465;BME280;60471;52.150;4.508;2023-08-06T07:54:41;100424.56;;;18.74;64.48
72465;BME280;60471;52.150;4.508;2023-08-06T07:57:07;100428.66;;;18.78;64.35
72465;BME280;60471;52.150;4.508;2023-08-06T07:59:34;100430.28;;;19.00;64.30
72465;BME280;60471;52.150;4.508;2023-08-06T08:02:04;100431.97;;;19.01;63.98
72465;BME280;60471;52.150;4.508;2023-08-06T08:04:31;100438.53;;;18.97;64.10
72465;BME280;60471;52.150;4.508;2023-08-06T08:06:57;100440.94;;;18.91;64.46
72465;BME280;60471;52.150;4.508;2023-08-06T08:09:24;100434.28;;;18.85;64.29
72465;BME280;60471;52.150;4.508;2023-08-06T08:11:50;100435.44;;;18.92;64.03
72465;BME280;60471;52.150;4.508;2023-08-06T08:14:16;100441.09;;;19.08;63.37
72465;BME280;60471;52.150;4.508;2023-08-06T08:16:42;100436.50;;;19.10;63.15
72465;BME280;60471;52.150;4.508;2023-08-06T08:19:08;100439.03;;;19.22;62.47
72465;BME280;60471;52.150;4.508;2023-08-06T08:21:35;100447.28;;;18.90;63.45
72465;BME280;60471;52.150;4.508;2023-08-06T08:24:01;100442.91;;;18.89;64.33
72465;BME280;60471;52.150;4.508;2023-08-06T08:26:29;100447.25;;;18.80;64.18
72465;BME280;60471;52.150;4.508;2023-08-06T08:28:56;100444.00;;;18.86;64.52
72465;BME280;60471;52.150;4.508;2023-08-06T08:31:22;100454.34;;;19.10;63.66
72465;BME280;60471;52.150;4.508;2023-08-06T08:33:49;100453.78;;;19.16;63.08
72465;BME280;60471;52.150;4.508;2023-08-06T08:36:15;100442.19;;;18.96;63.66
72465;BME280;60471;52.150;4.508;2023-08-06T08:38:41;100450.00;;;19.19;63.14
72465;BME280;60471;52.150;4.508;2023-08-06T08:41:09;100458.84;;;19.19;63.23
72465;BME280;60471;52.150;4.508;2023-08-06T08:43:37;100444.13;;;19.54;62.86
72465;BME280;60471;52.150;4.508;2023-08-06T08:46:07;100453.69;;;19.47;63.03
72465;BME280;60471;52.150;4.508;2023-08-06T08:48:37;100454.66;;;19.36;62.80
72465;BME280;60471;52.150;4.508;2023-08-06T08:51:04;100458.91;;;19.48;62.12
72465;BME280;60471;52.150;4.508;2023-08-06T08:53:33;100457.38;;;19.46;62.81
72465;BME280;60471;52.150;4.508;2023-08-06T08:56:01;100458.91;;;19.48;62.20
72465;BME280;60471;52.150;4.508;2023-08-06T08:58:27;100461.34;;;19.80;61.37
72465;BME280;60471;52.150;4.508;2023-08-06T09:00:54;100468.91;;;20.14;60.50
72465;BME280;60471;52.150;4.508;2023-08-06T09:03:20;100464.75;;;20.39;59.98
72465;BME280;60471;52.150;4.508;2023-08-06T09:05:49;100467.91;;;20.71;57.73
72465;BME280;60471;52.150;4.508;2023-08-06T09:08:23;100465.75;;;20.84;58.05
72465;BME280;60471;52.150;4.508;2023-08-06T09:10:56;100467.41;;;21.13;56.71
72465;BME280;60471;52.150;4.508;2023-08-06T09:13:23;100466.81;;;21.64;54.72
72465;BME280;60471;52.150;4.508;2023-08-06T09:15:50;100467.38;;;22.12;52.51
72465;BME280;60471;52.150;4.508;2023-08-06T09:18:25;100466.16;;;21.88;52.99
72465;BME280;60471;52.150;4.508;2023-08-06T09:20:55;100472.06;;;21.92;52.51
72465;BME280;60471;52.150;4.508;2023-08-06T09:23:29;100480.78;;;22.30;52.21
72465;BME280;60471;52.150;4.508;2023-08-06T09:25:57;100470.28;;;22.18;52.61
72465;BME280;60471;52.150;4.508;2023-08-06T09:28:24;100479.75;;;22.56;51.10
72465;BME280;60471;52.150;4.508;2023-08-06T09:30:52;100482.59;;;22.81;50.79
72465;BME280;60471;52.150;4.508;2023-08-06T09:33:22;100481.34;;;22.93;49.19
72465;BME280;60471;52.150;4.508;2023-08-06T09:35:49;100488.00;;;23.23;49.58
72465;BME280;60471;52.150;4.508;2023-08-06T09:38:15;100489.28;;;23.11;48.79
72465;BME280;60471;52.150;4.508;2023-08-06T09:40:41;100494.47;;;22.96;48.30
72465;BME280;60471;52.150;4.508;2023-08-06T09:43:08;100489.41;;;23.52;47.45
72465;BME280;60471;52.150;4.508;2023-08-06T09:45:36;100492.34;;;23.83;46.82
72465;BME280;60471;52.150;4.508;2023-08-06T09:48:08;100498.56;;;23.83;47.68
72465;BME280;60471;52.150;4.508;2023-08-06T09:50:36;100500.69;;;22.97;48.54
72465;BME280;60471;52.150;4.508;2023-08-06T09:53:05;100513.13;;;22.20;50.05
72465;BME280;60471;52.150;4.508;2023-08-06T09:55:33;100511.44;;;22.45;50.22
72465;BME280;60471;52.150;4.508;2023-08-06T09:58:00;100504.41;;;22.78;48.92
72465;BME280;60471;52.150;4.508;2023-08-06T10:00:27;100525.41;;;22.05;49.91
72465;BME280;60471;52.150;4.508;2023-08-06T10:02:54;100521.66;;;21.62;51.01
72465;BME280;60471;52.150;4.508;2023-08-06T10:05:26;100530.19;;;21.75;51.21
72465;BME280;60471;52.150;4.508;2023-08-06T10:07:55;100530.94;;;22.21;49.75
72465;BME280;60471;52.150;4.508;2023-08-06T10:10:23;100533.78;;;22.63;48.90
72465;BME280;60471;52.150;4.508;2023-08-06T10:12:54;100536.38;;;22.29;49.95
72465;BME280;60471;52.150;4.508;2023-08-06T10:15:26;100540.63;;;21.96;50.16
72465;BME280;60471;52.150;4.508;2023-08-06T10:17:57;100538.72;;;22.06;50.91
72465;BME280;60471;52.150;4.508;2023-08-06T10:20:25;100537.84;;;22.93;48.50
72465;BME280;60471;52.150;4.508;2023-08-06T10:23:02;100542.91;;;22.78;46.83
72465;BME280;60471;52.150;4.508;2023-08-06T10:25:31;100542.38;;;22.93;46.05
72465;BME280;60471;52.150;4.508;2023-08-06T10:28:11;100536.41;;;23.65;45.63
72465;BME280;60471;52.150;4.508;2023-08-06T10:30:42;100545.09;;;23.43;46.79
72465;BME280;60471;52.150;4.508;2023-08-06T10:33:10;100546.09;;;23.42;47.32
72465;BME280;60471;52.150;4.508;2023-08-06T10:38:14;100544.75;;;22.70;46.08
72465;BME280;60471;52.150;4.508;2023-08-06T10:43:35;100541.81;;;23.15;45.36
72465;BME280;60471;52.150;4.508;2023-08-06T10:46:23;100547.63;;;23.36;45.37
72465;BME280;60471;52.150;4.508;2023-08-06T10:48:52;100550.66;;;24.49;42.61
72465;BME280;60471;52.150;4.508;2023-08-06T10:51:19;100553.00;;;24.60;43.15
72465;BME280;60471;52.150;4.508;2023-08-06T10:53:49;100548.56;;;23.69;44.76
72465;BME280;60471;52.150;4.508;2023-08-06T10:56:20;100550.94;;;23.73;44.88
72465;BME280;60471;52.150;4.508;2023-08-06T10:58:54;100552.94;;;25.40;41.33
72465;BME280;60471;52.150;4.508;2023-08-06T11:01:29;100551.88;;;26.03;38.87
72465;BME280;60471;52.150;4.508;2023-08-06T11:04:01;100559.88;;;26.19;39.11
72465;BME280;60471;52.150;4.508;2023-08-06T11:06:28;100562.84;;;25.48;39.65
72465;BME280;60471;52.150;4.508;2023-08-06T11:08:55;100554.66;;;27.44;35.94
72465;BME280;60471;52.150;4.508;2023-08-06T11:11:22;100556.47;;;28.30;35.16
72465;BME280;60471;52.150;4.508;2023-08-06T11:13:50;100555.66;;;28.58;33.64
72465;BME280;60471;52.150;4.508;2023-08-06T11:16:24;100555.28;;;27.76;35.42
72465;BME280;60471;52.150;4.508;2023-08-06T11:18:51;100549.88;;;27.25;37.60
72465;BME280;60471;52.150;4.508;2023-08-06T11:21:20;100565.94;;;26.44;38.45
72465;BME280;60471;52.150;4.508;2023-08-06T11:23:47;100555.88;;;27.71;36.79
72465;BME280;60471;52.150;4.508;2023-08-06T11:26:21;100563.72;;;27.66;36.72
72465;BME280;60471;52.150;4.508;2023-08-06T11:28:53;100557.38;;;26.33;39.54
72465;BME280;60471;52.150;4.508;2023-08-06T11:31:23;100552.31;;;27.05;37.44
72465;BME280;60471;52.150;4.508;2023-08-06T11:33:54;100545.41;;;29.29;34.04
72465;BME280;60471;52.150;4.508;2023-08-06T11:36:31;100545.63;;;29.21;33.20
72465;BME280;60471;52.150;4.508;2023-08-06T11:38:59;100548.50;;;29.74;33.19
72465;BME280;60471;52.150;4.508;2023-08-06T11:41:28;100549.31;;;27.65;36.35
72465;BME280;60471;52.150;4.508;2023-08-06T11:43:55;100542.69;;;27.53;36.71
72465;BME280;60471;52.150;4.508;2023-08-06T11:46:21;100549.44;;;28.21;34.88
72465;BME280;60471;52.150;4.508;2023-08-06T11:48:56;100549.31;;;28.01;36.10
72465;BME280;60471;52.150;4.508;2023-08-06T11:51:23;100550.91;;;28.95;35.49
72465;BME280;60471;52.150;4.508;2023-08-06T11:53:56;100556.25;;;29.64;33.95
72465;BME280;60471;52.150;4.508;2023-08-06T11:56:27;100547.75;;;28.91;34.73
72465;BME280;60471;52.150;4.508;2023-08-06T11:58:54;100559.22;;;29.28;34.47
72465;BME280;60471;52.150;4.508;2023-08-06T12:01:21;100549.47;;;27.79;37.13
72465;BME280;60471;52.150;4.508;2023-08-06T12:03:47;100557.75;;;26.29;40.34
72465;BME280;60471;52.150;4.508;2023-08-06T12:06:13;100571.66;;;25.41;42.21
72465;BME280;60471;52.150;4.508;2023-08-06T12:08:40;100574.19;;;24.88;43.93
72465;BME280;60471;52.150;4.508;2023-08-06T12:11:07;100565.63;;;24.76;43.98
72465;BME280;60471;52.150;4.508;2023-08-06T12:13:34;100567.31;;;24.77;44.58
72465;BME280;60471;52.150;4.508;2023-08-06T12:16:00;100577.94;;;24.62;45.17
72465;BME280;60471;52.150;4.508;2023-08-06T12:18:27;100582.06;;;23.59;45.66
72465;BME280;60471;52.150;4.508;2023-08-06T12:20:53;100582.75;;;22.75;48.42
72465;BME280;60471;52.150;4.508;2023-08-06T12:23:19;100581.81;;;23.10;47.85
72465;BME280;60471;52.150;4.508;2023-08-06T12:25:51;100586.69;;;22.80;49.21
72465;BME280;60471;52.150;4.508;2023-08-06T12:28:22;100578.91;;;23.80;46.46
72465;BME280;60471;52.150;4.508;2023-08-06T12:30:58;100587.38;;;24.42;43.61
72465;BME280;60471;52.150;4.508;2023-08-06T12:33:24;100593.53;;;25.15;41.89
72465;BME280;60471;52.150;4.508;2023-08-06T12:35:50;100591.78;;;24.75;42.52
72465;BME280;60471;52.150;4.508;2023-08-06T12:38:20;100604.38;;;24.91;43.61
72465;BME280;60471;52.150;4.508;2023-08-06T12:40:46;100599.41;;;25.97;41.47
72465;BME280;60471;52.150;4.508;2023-08-06T12:43:12;100592.16;;;26.81;40.25
72465;BME280;60471;52.150;4.508;2023-08-06T12:45:39;100594.09;;;28.19;37.67
72465;BME280;60471;52.150;4.508;2023-08-06T12:48:05;100601.69;;;28.45;37.03
72465;BME280;60471;52.150;4.508;2023-08-06T12:50:31;100603.53;;;27.80;37.97
72465;BME280;60471;52.150;4.508;2023-08-06T12:52:58;100607.09;;;26.32;41.63
72465;BME280;60471;52.150;4.508;2023-08-06T12:55:24;100616.84;;;24.92;44.75
72465;BME280;60471;52.150;4.508;2023-08-06T12:57:51;100626.16;;;23.66;50.34
72465;BME280;60471;52.150;4.508;2023-08-06T13:00:17;100617.38;;;22.70;53.35
72465;BME280;60471;52.150;4.508;2023-08-06T13:02:43;100630.94;;;21.79;54.06
72465;BME280;60471;52.150;4.508;2023-08-06T13:05:09;100619.97;;;21.90;54.78